sensor_id;sensor_type;location;lat;lon;timestamp;pressure;altitude;pressure_sealevel;temperature
68939;BMP180;59064;45.294;11.816;2022-12-20T00:01:23;102910.20;;;3.20
68939;BMP180;59064;45.294;11.816;2022-12-20T00:03:51;102914.00;;;3.18
68939;BMP180;59064;45.294;11.816;2022-12-20T00:06:18;102912.00;;;3.20
68939;BMP180;59064;45.294;11.816;2022-12-20T00:08:44;102916.40;;;3.20
68939;BMP180;59064;45.294;11.816;2022-12-20T00:11:10;102920.00;;;3.20
68939;BMP180;59064;45.294;11.816;2022-12-20T00:13:36;102928.60;;;3.20
68939;BMP180;59064;45.294;11.816;2022-12-20T00:16:06;102925.40;;;3.20
68939;BMP180;59064;45.294;11.816;2022-12-20T00:18:32;102909.00;;;3.24
68939;BMP180;59064;45.294;11.816;2022-12-20T00:20:59;102908.00;;;3.26
68939;BMP180;59064;45.294;11.816;2022-12-20T00:23:25;102909.20;;;3.20
68939;BMP180;59064;45.294;11.816;2022-12-20T00:25:51;102905.20;;;3.30
68939;BMP180;59064;45.294;11.816;2022-12-20T00:28:16;102903.20;;;3.30
68939;BMP180;59064;45.294;11.816;2022-12-20T00:30:41;102910.20;;;3.30
68939;BMP180;59064;45.294;11.816;2022-12-20T00:33:07;102913.60;;;3.30
68939;BMP180;59064;45.294;11.816;2022-12-20T00:35:33;102910.80;;;3.30
68939;BMP180;59064;45.294;11.816;2022-12-20T00:37:58;102903.20;;;3.30
68939;BMP180;59064;45.294;11.816;2022-12-20T00:40:24;102898.80;;;3.32
68939;BMP180;59064;45.294;11.816;2022-12-20T00:42:50;102901.40;;;3.40
68939;BMP180;59064;45.294;11.816;2022-12-20T00:45:16;102897.60;;;3.40
68939;BMP180;59064;45.294;11.816;2022-12-20T00:47:41;102898.40;;;3.40
68939;BMP180;59064;45.294;11.816;2022-12-20T00:50:07;102902.80;;;3.40
68939;BMP180;59064;45.294;11.816;2022-12-20T00:52:32;102903.20;;;3.42
68939;BMP180;59064;45.294;11.816;2022-12-20T00:54:58;102905.60;;;3.42
68939;BMP180;59064;45.294;11.816;2022-12-20T00:57:23;102908.80;;;3.40
68939;BMP180;59064;45.294;11.816;2022-12-20T00:59:49;102906.80;;;3.40
68939;BMP180;59064;45.294;11.816;2022-12-20T01:02:14;102904.60;;;3.40
68939;BMP180;59064;45.294;11.816;2022-12-20T01:04:40;102900.60;;;3.40
68939;BMP180;59064;45.294;11.816;2022-12-20T01:07:06;102899.60;;;3.40
68939;BMP180;59064;45.294;11.816;2022-12-20T01:09:31;102886.40;;;3.40
68939;BMP180;59064;45.294;11.816;2022-12-20T01:11:57;102891.60;;;3.40
68939;BMP180;59064;45.294;11.816;2022-12-20T01:14:22;102888.00;;;3.38
68939;BMP180;59064;45.294;11.816;2022-12-20T01:16:48;102883.00;;;3.40
68939;BMP180;59064;45.294;11.816;2022-12-20T01:19:15;102888.20;;;3.40
68939;BMP180;59064;45.294;11.816;2022-12-20T01:21:42;102888.00;;;3.40
68939;BMP180;59064;45.294;11.816;2022-12-20T01:24:16;102889.00;;;3.50
68939;BMP180;59064;45.294;11.816;2022-12-20T01:26:43;102888.00;;;3.52
68939;BMP180;59064;45.294;11.816;2022-12-20T01:29:09;102893.00;;;3.60
68939;BMP180;59064;45.294;11.816;2022-12-20T01:31:35;102892.60;;;3.62
68939;BMP180;59064;45.294;11.816;2022-12-20T01:34:01;102890.80;;;3.62
68939;BMP180;59064;45.294;11.816;2022-12-20T01:36:29;102891.60;;;3.62
68939;BMP180;59064;45.294;11.816;2022-12-20T01:39:01;102895.20;;;3.60
68939;BMP180;59064;45.294;11.816;2022-12-20T01:41:30;102898.20;;;3.60
68939;BMP180;59064;45.294;11.816;2022-12-20T01:43:59;102890.80;;;3.58
68939;BMP180;59064;45.294;11.816;2022-12-20T01:46:28;102878.80;;;3.60
68939;BMP180;59064;45.294;11.816;2022-12-20T01:51:34;102869.40;;;3.70
68939;BMP180;59064;45.294;11.816;2022-12-20T01:54:05;102871.80;;;3.70
68939;BMP180;59064;45.294;11.816;2022-12-20T01:56:32;102869.60;;;3.78
68939;BMP180;59064;45.294;11.816;2022-12-20T01:59:00;102865.00;;;3.80
68939;BMP180;59064;45.294;11.816;2022-12-20T02:01:26;102859.60;;;3.78
68939;BMP180;59064;45.294;11.816;2022-12-20T02:03:53;102856.20;;;3.70
68939;BMP180;59064;45.294;11.816;2022-12-20T02:06:21;102854.00;;;3.70
68939;BMP180;59064;45.294;11.816;2022-12-20T02:08:49;102852.00;;;3.60
68939;BMP180;59064;45.294;11.816;2022-12-20T02:16:55;102848.40;;;3.50
68939;BMP180;59064;45.294;11.816;2022-12-20T02:19:58;102848.80;;;3.60
68939;BMP180;59064;45.294;11.816;2022-12-20T02:25:41;102836.40;;;3.70
68939;BMP180;59064;45.294;11.816;2022-12-20T02:30:50;102832.60;;;3.70
68939;BMP180;59064;45.294;11.816;2022-12-20T02:33:20;102834.60;;;3.70
68939;BMP180;59064;45.294;11.816;2022-12-20T02:35:47;102832.60;;;3.70
68939;BMP180;59064;45.294;11.816;2022-12-20T02:38:33;102823.40;;;3.76
68939;BMP180;59064;45.294;11.816;2022-12-20T02:43:42;102816.80;;;3.80
68939;BMP180;59064;45.294;11.816;2022-12-20T02:46:26;102821.20;;;3.80
68939;BMP180;59064;45.294;11.816;2022-12-20T02:48:55;102815.60;;;3.80
68939;BMP180;59064;45.294;11.816;2022-12-20T02:51:24;102808.60;;;3.80
68939;BMP180;59064;45.294;11.816;2022-12-20T02:53:50;102810.00;;;3.80
68939;BMP180;59064;45.294;11.816;2022-12-20T02:59:09;102804.80;;;3.70
68939;BMP180;59064;45.294;11.816;2022-12-20T03:01:53;102799.80;;;3.70
68939;BMP180;59064;45.294;11.816;2022-12-20T03:04:22;102793.80;;;3.70
68939;BMP180;59064;45.294;11.816;2022-12-20T03:07:01;102791.40;;;3.74
68939;BMP180;59064;45.294;11.816;2022-12-20T03:09:27;102792.00;;;3.78
68939;BMP180;59064;45.294;11.816;2022-12-20T03:11:55;102794.00;;;3.80
68939;BMP180;59064;45.294;11.816;2022-12-20T03:14:21;102789.60;;;3.80
68939;BMP180;59064;45.294;11.816;2022-12-20T03:16:46;102791.40;;;3.80
68939;BMP180;59064;45.294;11.816;2022-12-20T03:19:14;102793.20;;;3.70
68939;BMP180;59064;45.294;11.816;2022-12-20T03:21:39;102794.80;;;3.70
68939;BMP180;59064;45.294;11.816;2022-12-20T03:24:06;102811.20;;;3.80
68939;BMP180;59064;45.294;11.816;2022-12-20T03:26:31;102807.80;;;3.80
68939;BMP180;59064;45.294;11.816;2022-12-20T03:28:57;102800.20;;;3.78
68939;BMP180;59064;45.294;11.816;2022-12-20T03:31:22;102805.00;;;3.70
68939;BMP180;59064;45.294;11.816;2022-12-20T03:33:48;102799.20;;;3.76
68939;BMP180;59064;45.294;11.816;2022-12-20T03:36:14;102795.00;;;3.74
68939;BMP180;59064;45.294;11.816;2022-12-20T03:38:40;102797.20;;;3.70
68939;BMP180;59064;45.294;11.816;2022-12-20T03:41:05;102788.80;;;3.70
68939;BMP180;59064;45.294;11.816;2022-12-20T03:43:31;102791.40;;;3.80
68939;BMP180;59064;45.294;11.816;2022-12-20T03:45:56;102785.20;;;3.80
68939;BMP180;59064;45.294;11.816;2022-12-20T03:48:22;102787.00;;;3.74
68939;BMP180;59064;45.294;11.816;2022-12-20T03:50:47;102787.20;;;3.80
68939;BMP180;59064;45.294;11.816;2022-12-20T03:53:13;102784.40;;;3.80
68939;BMP180;59064;45.294;11.816;2022-12-20T03:55:39;102789.20;;;3.80
68939;BMP180;59064;45.294;11.816;2022-12-20T03:58:04;102785.20;;;3.80
68939;BMP180;59064;45.294;11.816;2022-12-20T04:00:30;102785.60;;;3.80
68939;BMP180;59064;45.294;11.816;2022-12-20T04:02:55;102792.20;;;3.80
68939;BMP180;59064;45.294;11.816;2022-12-20T04:05:21;102786.40;;;3.80
68939;BMP180;59064;45.294;11.816;2022-12-20T04:07:46;102780.20;;;3.70
68939;BMP180;59064;45.294;11.816;2022-12-20T04:10:12;102790.20;;;3.70
68939;BMP180;59064;45.294;11.816;2022-12-20T04:12:37;102783.60;;;3.70
68939;BMP180;59064;45.294;11.816;2022-12-20T04:15:04;102782.60;;;3.80
68939;BMP180;59064;45.294;11.816;2022-12-20T04:17:30;102780.80;;;3.80
68939;BMP180;59064;45.294;11.816;2022-12-20T04:19:55;102775.80;;;3.80
68939;BMP180;59064;45.294;11.816;2022-12-20T04:22:21;102780.00;;;3.80
68939;BMP180;59064;45.294;11.816;2022-12-20T04:24:46;102781.60;;;3.90
68939;BMP180;59064;45.294;11.816;2022-12-20T04:27:13;102784.20;;;3.80
68939;BMP180;59064;45.294;11.816;2022-12-20T04:29:38;102774.80;;;3.80
68939;BMP180;59064;45.294;11.816;2022-12-20T04:32:04;102787.40;;;3.72
68939;BMP180;59064;45.294;11.816;2022-12-20T04:34:29;102784.60;;;3.70
68939;BMP180;59064;45.294;11.816;2022-12-20T04:36:56;102784.60;;;3.70
68939;BMP180;59064;45.294;11.816;2022-12-20T04:39:21;102776.00;;;3.60
68939;BMP180;59064;45.294;11.816;2022-12-20T04:41:47;102771.20;;;3.60
68939;BMP180;59064;45.294;11.816;2022-12-20T04:44:12;102775.00;;;3.56
68939;BMP180;59064;45.294;11.816;2022-12-20T04:46:38;102779.80;;;3.50
68939;BMP180;59064;45.294;11.816;2022-12-20T04:49:03;102776.80;;;3.58
68939;BMP180;59064;45.294;11.816;2022-12-20T04:51:29;102773.20;;;3.52
68939;BMP180;59064;45.294;11.816;2022-12-20T04:53:55;102764.80;;;3.50
68939;BMP180;59064;45.294;11.816;2022-12-20T04:56:26;102769.00;;;3.50
68939;BMP180;59064;45.294;11.816;2022-12-20T04:58:53;102770.40;;;3.50
68939;BMP180;59064;45.294;11.816;2022-12-20T05:01:20;102768.60;;;3.50
68939;BMP180;59064;45.294;11.816;2022-12-20T05:03:46;102766.80;;;3.50
68939;BMP180;59064;45.294;11.816;2022-12-20T05:06:12;102769.80;;;3.50
68939;BMP180;59064;45.294;11.816;2022-12-20T05:08:38;102762.40;;;3.60
68939;BMP180;59064;45.294;11.816;2022-12-20T05:11:04;102758.80;;;3.60
68939;BMP180;59064;45.294;11.816;2022-12-20T05:13:30;102763.00;;;3.60
68939;BMP180;59064;45.294;11.816;2022-12-20T05:15:57;102759.60;;;3.60
68939;BMP180;59064;45.294;11.816;2022-12-20T05:18:23;102758.80;;;3.62
68939;BMP180;59064;45.294;11.816;2022-12-20T05:20:50;102757.80;;;3.64
68939;BMP180;59064;45.294;11.816;2022-12-20T05:23:36;102751.00;;;3.64
68939;BMP180;59064;45.294;11.816;2022-12-20T05:26:21;102750.20;;;3.60
68939;BMP180;59064;45.294;11.816;2022-12-20T05:28:47;102754.00;;;3.60
68939;BMP180;59064;45.294;11.816;2022-12-20T05:31:13;102757.80;;;3.60
68939;BMP180;59064;45.294;11.816;2022-12-20T05:33:38;102752.00;;;3.60
68939;BMP180;59064;45.294;11.816;2022-12-20T05:36:04;102750.60;;;3.60
68939;BMP180;59064;45.294;11.816;2022-12-20T05:38:30;102742.20;;;3.60
68939;BMP180;59064;45.294;11.816;2022-12-20T05:40:55;102743.40;;;3.60
68939;BMP180;59064;45.294;11.816;2022-12-20T05:43:21;102745.60;;;3.60
68939;BMP180;59064;45.294;11.816;2022-12-20T05:45:47;102740.60;;;3.60
68939;BMP180;59064;45.294;11.816;2022-12-20T05:48:15;102749.00;;;3.60
68939;BMP180;59064;45.294;11.816;2022-12-20T05:50:40;102747.80;;;3.60
68939;BMP180;59064;45.294;11.816;2022-12-20T05:53:10;102745.80;;;3.60
68939;BMP180;59064;45.294;11.816;2022-12-20T05:55:36;102746.20;;;3.60
68939;BMP180;59064;45.294;11.816;2022-12-20T05:58:01;102734.60;;;3.60
68939;BMP180;59064;45.294;11.816;2022-12-20T06:00:27;102738.00;;;3.68
68939;BMP180;59064;45.294;11.816;2022-12-20T06:02:52;102735.60;;;3.68
68939;BMP180;59064;45.294;11.816;2022-12-20T06:05:18;102735.60;;;3.68
68939;BMP180;59064;45.294;11.816;2022-12-20T06:07:44;102734.80;;;3.70
68939;BMP180;59064;45.294;11.816;2022-12-20T06:10:09;102744.80;;;3.70
68939;BMP180;59064;45.294;11.816;2022-12-20T06:12:36;102746.00;;;3.70
68939;BMP180;59064;45.294;11.816;2022-12-20T06:15:01;102746.20;;;3.70
68939;BMP180;59064;45.294;11.816;2022-12-20T06:17:27;102742.60;;;3.70
68939;BMP180;59064;45.294;11.816;2022-12-20T06:19:52;102738.40;;;3.70
68939;BMP180;59064;45.294;11.816;2022-12-20T06:22:18;102737.00;;;3.70
68939;BMP180;59064;45.294;11.816;2022-12-20T06:24:43;102727.80;;;3.72
68939;BMP180;59064;45.294;11.816;2022-12-20T06:27:09;102726.20;;;3.74
68939;BMP180;59064;45.294;11.816;2022-12-20T06:29:35;102729.20;;;3.76
68939;BMP180;59064;45.294;11.816;2022-12-20T06:32:02;102727.20;;;3.70
68939;BMP180;59064;45.294;11.816;2022-12-20T06:34:30;102726.60;;;3.70
68939;BMP180;59064;45.294;11.816;2022-12-20T06:36:56;102723.80;;;3.72
68939;BMP180;59064;45.294;11.816;2022-12-20T06:39:22;102717.80;;;3.74
68939;BMP180;59064;45.294;11.816;2022-12-20T06:41:47;102727.40;;;3.78
68939;BMP180;59064;45.294;11.816;2022-12-20T06:44:13;102724.60;;;3.80
68939;BMP180;59064;45.294;11.816;2022-12-20T06:46:38;102727.40;;;3.80
68939;BMP180;59064;45.294;11.816;2022-12-20T06:49:04;102728.40;;;3.80
68939;BMP180;59064;45.294;11.816;2022-12-20T06:51:29;102725.40;;;3.80
68939;BMP180;59064;45.294;11.816;2022-12-20T06:53:55;102723.20;;;3.80
68939;BMP180;59064;45.294;11.816;2022-12-20T06:56:20;102725.00;;;3.80
68939;BMP180;59064;45.294;11.816;2022-12-20T06:58:46;102735.00;;;3.80
68939;BMP180;59064;45.294;11.816;2022-12-20T07:01:11;102735.00;;;3.88
68939;BMP180;59064;45.294;11.816;2022-12-20T07:03:37;102735.40;;;3.90
68939;BMP180;59064;45.294;11.816;2022-12-20T07:06:02;102729.00;;;3.90
68939;BMP180;59064;45.294;11.816;2022-12-20T07:08:28;102730.60;;;3.90
68939;BMP180;59064;45.294;11.816;2022-12-20T07:10:54;102740.40;;;3.90
68939;BMP180;59064;45.294;11.816;2022-12-20T07:13:21;102740.40;;;3.94
68939;BMP180;59064;45.294;11.816;2022-12-20T07:15:47;102740.00;;;3.98
68939;BMP180;59064;45.294;11.816;2022-12-20T07:18:13;102738.80;;;3.98
68939;BMP180;59064;45.294;11.816;2022-12-20T07:20:38;102729.20;;;4.00
68939;BMP180;59064;45.294;11.816;2022-12-20T07:23:05;102733.60;;;4.00
68939;BMP180;59064;45.294;11.816;2022-12-20T07:25:31;102734.00;;;4.04
68939;BMP180;59064;45.294;11.816;2022-12-20T07:27:56;102735.00;;;4.06
68939;BMP180;59064;45.294;11.816;2022-12-20T07:30:23;102734.60;;;4.10
68939;BMP180;59064;45.294;11.816;2022-12-20T07:32:49;102733.00;;;4.10
68939;BMP180;59064;45.294;11.816;2022-12-20T07:35:14;102736.20;;;4.10
68939;BMP180;59064;45.294;11.816;2022-12-20T07:37:40;102734.80;;;4.10
68939;BMP180;59064;45.294;11.816;2022-12-20T07:40:07;102741.00;;;4.10
68939;BMP180;59064;45.294;11.816;2022-12-20T07:42:33;102744.60;;;4.00
68939;BMP180;59064;45.294;11.816;2022-12-20T07:44:58;102746.00;;;4.00
68939;BMP180;59064;45.294;11.816;2022-12-20T07:47:24;102749.40;;;4.08
68939;BMP180;59064;45.294;11.816;2022-12-20T07:49:49;102743.80;;;4.10
68939;BMP180;59064;45.294;11.816;2022-12-20T07:52:18;102741.20;;;4.10
68939;BMP180;59064;45.294;11.816;2022-12-20T07:54:52;102743.20;;;4.10
68939;BMP180;59064;45.294;11.816;2022-12-20T07:57:24;102753.80;;;4.10
68939;BMP180;59064;45.294;11.816;2022-12-20T07:59:54;102745.60;;;4.10
68939;BMP180;59064;45.294;11.816;2022-12-20T08:02:25;102747.40;;;4.10
68939;BMP180;59064;45.294;11.816;2022-12-20T08:04:52;102751.40;;;4.10
68939;BMP180;59064;45.294;11.816;2022-12-20T08:07:18;102741.60;;;4.10
68939;BMP180;59064;45.294;11.816;2022-12-20T08:09:44;102743.80;;;4.10
68939;BMP180;59064;45.294;11.816;2022-12-20T08:12:13;102749.20;;;4.18
68939;BMP180;59064;45.294;11.816;2022-12-20T08:14:39;102740.80;;;4.20
68939;BMP180;59064;45.294;11.816;2022-12-20T08:17:05;102750.80;;;4.20
68939;BMP180;59064;45.294;11.816;2022-12-20T08:19:30;102745.20;;;4.20
68939;BMP180;59064;45.294;11.816;2022-12-20T08:21:56;102752.40;;;4.20
68939;BMP180;59064;45.294;11.816;2022-12-20T08:24:22;102747.80;;;4.20
68939;BMP180;59064;45.294;11.816;2022-12-20T08:26:48;102745.60;;;4.30
68939;BMP180;59064;45.294;11.816;2022-12-20T08:29:13;102747.00;;;4.30
68939;BMP180;59064;45.294;11.816;2022-12-20T08:31:40;102746.40;;;4.30
68939;BMP180;59064;45.294;11.816;2022-12-20T08:34:09;102741.60;;;4.38
68939;BMP180;59064;45.294;11.816;2022-12-20T08:36:35;102744.80;;;4.40
68939;BMP180;59064;45.294;11.816;2022-12-20T08:39:02;102745.00;;;4.40
68939;BMP180;59064;45.294;11.816;2022-12-20T08:41:28;102745.80;;;4.50
68939;BMP180;59064;45.294;11.816;2022-12-20T08:43:54;102745.20;;;4.50
68939;BMP180;59064;45.294;11.816;2022-12-20T08:46:19;102742.60;;;4.50
68939;BMP180;59064;45.294;11.816;2022-12-20T08:48:45;102744.00;;;4.60
68939;BMP180;59064;45.294;11.816;2022-12-20T08:51:11;102738.40;;;4.62
68939;BMP180;59064;45.294;11.816;2022-12-20T08:53:38;102732.00;;;4.70
68939;BMP180;59064;45.294;11.816;2022-12-20T08:56:05;102740.60;;;4.78
68939;BMP180;59064;45.294;11.816;2022-12-20T08:58:31;102745.40;;;4.80
68939;BMP180;59064;45.294;11.816;2022-12-20T09:01:01;102745.80;;;4.90
68939;BMP180;59064;45.294;11.816;2022-12-20T09:03:31;102749.00;;;4.90
68939;BMP180;59064;45.294;11.816;2022-12-20T09:05:58;102748.60;;;5.00
68939;BMP180;59064;45.294;11.816;2022-12-20T09:08:25;102747.40;;;5.10
68939;BMP180;59064;45.294;11.816;2022-12-20T09:10:51;102744.40;;;5.18
68939;BMP180;59064;45.294;11.816;2022-12-20T09:13:17;102738.40;;;5.20
68939;BMP180;59064;45.294;11.816;2022-12-20T09:15:43;102742.00;;;5.30
68939;BMP180;59064;45.294;11.816;2022-12-20T09:18:09;102739.00;;;5.34
68939;BMP180;59064;45.294;11.816;2022-12-20T09:20:35;102748.20;;;5.40
68939;BMP180;59064;45.294;11.816;2022-12-20T09:23:06;102744.20;;;5.48
68939;BMP180;59064;45.294;11.816;2022-12-20T09:25:32;102747.40;;;5.50
68939;BMP180;59064;45.294;11.816;2022-12-20T09:27:58;102742.60;;;5.50
68939;BMP180;59064;45.294;11.816;2022-12-20T09:30:23;102741.20;;;5.50
68939;BMP180;59064;45.294;11.816;2022-12-20T09:32:49;102737.40;;;5.50
68939;BMP180;59064;45.294;11.816;2022-12-20T09:35:15;102729.80;;;5.40
68939;BMP180;59064;45.294;11.816;2022-12-20T09:37:40;102738.80;;;5.40
68939;BMP180;59064;45.294;11.816;2022-12-20T09:40:15;102733.80;;;5.40
68939;BMP180;59064;45.294;11.816;2022-12-20T09:42:43;102737.60;;;5.40
68939;BMP180;59064;45.294;11.816;2022-12-20T09:45:22;102735.00;;;5.48
68939;BMP180;59064;45.294;11.816;2022-12-20T09:47:49;102728.40;;;5.40
68939;BMP180;59064;45.294;11.816;2022-12-20T09:50:18;102724.80;;;5.40
68939;BMP180;59064;45.294;11.816;2022-12-20T09:53:00;102726.60;;;5.40
68939;BMP180;59064;45.294;11.816;2022-12-20T09:55:42;102726.40;;;5.40
68939;BMP180;59064;45.294;11.816;2022-12-20T10:01:26;102703.00;;;5.42
68939;BMP180;59064;45.294;11.816;2022-12-20T10:03:54;102699.20;;;5.40
68939;BMP180;59064;45.294;11.816;2022-12-20T10:24:35;102692.60;;;5.70
68939;BMP180;59064;45.294;11.816;2022-12-20T10:27:18;102691.60;;;5.80
68939;BMP180;59064;45.294;11.816;2022-12-20T10:29:46;102686.60;;;5.80
68939;BMP180;59064;45.294;11.816;2022-12-20T10:32:21;102686.80;;;5.80
68939;BMP180;59064;45.294;11.816;2022-12-20T10:34:54;102685.20;;;5.80
68939;BMP180;59064;45.294;11.816;2022-12-20T10:37:20;102678.40;;;5.82
68939;BMP180;59064;45.294;11.816;2022-12-20T10:39:48;102677.60;;;5.90
68939;BMP180;59064;45.294;11.816;2022-12-20T10:42:45;102673.20;;;6.10
68939;BMP180;59064;45.294;11.816;2022-12-20T10:47:44;102660.40;;;6.30
68939;BMP180;59064;45.294;11.816;2022-12-20T10:50:21;102666.60;;;6.30
68939;BMP180;59064;45.294;11.816;2022-12-20T10:55:40;102659.80;;;6.56
68939;BMP180;59064;45.294;11.816;2022-12-20T10:58:30;102657.00;;;6.64
68939;BMP180;59064;45.294;11.816;2022-12-20T11:01:14;102647.20;;;6.80
68939;BMP180;59064;45.294;11.816;2022-12-20T11:03:53;102643.80;;;6.72
68939;BMP180;59064;45.294;11.816;2022-12-20T11:06:23;102643.60;;;6.70
68939;BMP180;59064;45.294;11.816;2022-12-20T11:08:49;102635.60;;;6.74
68939;BMP180;59064;45.294;11.816;2022-12-20T11:13:47;102624.00;;;6.68
68939;BMP180;59064;45.294;11.816;2022-12-20T11:16:34;102610.40;;;6.70
68939;BMP180;59064;45.294;11.816;2022-12-20T11:26:54;102596.80;;;6.50
68939;BMP180;59064;45.294;11.816;2022-12-20T11:32:41;102588.80;;;6.60
68939;BMP180;59064;45.294;11.816;2022-12-20T11:35:14;102582.00;;;6.58
68939;BMP180;59064;45.294;11.816;2022-12-20T11:40:36;102571.20;;;6.60
68939;BMP180;59064;45.294;11.816;2022-12-20T11:56:33;102545.80;;;6.50
68939;BMP180;59064;45.294;11.816;2022-12-20T11:59:41;102555.20;;;6.60
68939;BMP180;59064;45.294;11.816;2022-12-20T12:05:00;102572.80;;;6.92
68939;BMP180;59064;45.294;11.816;2022-12-20T12:07:32;102562.60;;;7.10
68939;BMP180;59064;45.294;11.816;2022-12-20T12:12:44;102565.80;;;7.28
68939;BMP180;59064;45.294;11.816;2022-12-20T12:18:04;102563.40;;;7.22
68939;BMP180;59064;45.294;11.816;2022-12-20T12:21:02;102560.40;;;7.30
68939;BMP180;59064;45.294;11.816;2022-12-20T12:26:24;102556.20;;;7.30
68939;BMP180;59064;45.294;11.816;2022-12-20T12:28:54;102543.40;;;7.30
68939;BMP180;59064;45.294;11.816;2022-12-20T12:37:07;102543.80;;;7.20
68939;BMP180;59064;45.294;11.816;2022-12-20T12:45:25;102533.40;;;7.20
68939;BMP180;59064;45.294;11.816;2022-12-20T12:47:56;102522.00;;;7.14
68939;BMP180;59064;45.294;11.816;2022-12-20T12:50:30;102520.40;;;7.10
68939;BMP180;59064;45.294;11.816;2022-12-20T12:53:05;102515.80;;;7.10
68939;BMP180;59064;45.294;11.816;2022-12-20T12:55:43;102511.80;;;7.18
68939;BMP180;59064;45.294;11.816;2022-12-20T13:00:51;102513.40;;;7.30
68939;BMP180;59064;45.294;11.816;2022-12-20T13:03:40;102521.60;;;7.30
68939;BMP180;59064;45.294;11.816;2022-12-20T13:16:46;102508.00;;;7.30
68939;BMP180;59064;45.294;11.816;2022-12-20T13:27:31;102496.00;;;7.50
68939;BMP180;59064;45.294;11.816;2022-12-20T13:40:37;102478.00;;;7.60
68939;BMP180;59064;45.294;11.816;2022-12-20T13:43:09;102480.60;;;7.58
68939;BMP180;59064;45.294;11.816;2022-12-20T13:45:38;102476.80;;;7.60
68939;BMP180;59064;45.294;11.816;2022-12-20T13:48:05;102484.80;;;7.60
68939;BMP180;59064;45.294;11.816;2022-12-20T13:50:38;102486.00;;;7.60
68939;BMP180;59064;45.294;11.816;2022-12-20T13:53:06;102480.40;;;7.70
68939;BMP180;59064;45.294;11.816;2022-12-20T13:55:40;102479.80;;;7.60
68939;BMP180;59064;45.294;11.816;2022-12-20T13:58:34;102476.60;;;7.60
68939;BMP180;59064;45.294;11.816;2022-12-20T14:01:22;102480.00;;;7.60
68939;BMP180;59064;45.294;11.816;2022-12-20T14:03:49;102473.80;;;7.50
68939;BMP180;59064;45.294;11.816;2022-12-20T14:06:17;102478.60;;;7.40
68939;BMP180;59064;45.294;11.816;2022-12-20T14:08:46;102473.00;;;7.40
68939;BMP180;59064;45.294;11.816;2022-12-20T14:11:14;102471.40;;;7.40
68939;BMP180;59064;45.294;11.816;2022-12-20T14:13:41;102467.40;;;7.50
68939;BMP180;59064;45.294;11.816;2022-12-20T14:16:14;102464.20;;;7.54
68939;BMP180;59064;45.294;11.816;2022-12-20T14:18:40;102458.40;;;7.50
68939;BMP180;59064;45.294;11.816;2022-12-20T14:21:08;102462.40;;;7.50
68939;BMP180;59064;45.294;11.816;2022-12-20T14:23:42;102464.80;;;7.50
68939;BMP180;59064;45.294;11.816;2022-12-20T14:26:12;102469.40;;;7.50
68939;BMP180;59064;45.294;11.816;2022-12-20T14:28:42;102465.80;;;7.40
68939;BMP180;59064;45.294;11.816;2022-12-20T14:36:29;102455.40;;;7.30
68939;BMP180;59064;45.294;11.816;2022-12-20T14:38:56;102461.00;;;7.22
68939;BMP180;59064;45.294;11.816;2022-12-20T14:41:38;102454.20;;;7.10
68939;BMP180;59064;45.294;11.816;2022-12-20T14:44:21;102455.60;;;7.00
68939;BMP180;59064;45.294;11.816;2022-12-20T14:46:57;102452.80;;;6.98
68939;BMP180;59064;45.294;11.816;2022-12-20T14:49:28;102457.00;;;6.90
68939;BMP180;59064;45.294;11.816;2022-12-20T14:57:30;102452.80;;;6.60
68939;BMP180;59064;45.294;11.816;2022-12-20T15:00:00;102455.40;;;6.50
68939;BMP180;59064;45.294;11.816;2022-12-20T15:02:38;102455.20;;;6.40
68939;BMP180;59064;45.294;11.816;2022-12-20T15:05:30;102459.60;;;6.30
68939;BMP180;59064;45.294;11.816;2022-12-20T15:07:53;102455.20;;;6.20
68939;BMP180;59064;45.294;11.816;2022-12-20T15:10:19;102448.80;;;6.10
68939;BMP180;59064;45.294;11.816;2022-12-20T15:12:47;102442.80;;;6.10
68939;BMP180;59064;45.294;11.816;2022-12-20T15:15:14;102439.80;;;6.10
68939;BMP180;59064;45.294;11.816;2022-12-20T15:17:40;102439.00;;;6.10
68939;BMP180;59064;45.294;11.816;2022-12-20T15:20:11;102440.60;;;6.10
68939;BMP180;59064;45.294;11.816;2022-12-20T15:22:37;102444.00;;;6.10
68939;BMP180;59064;45.294;11.816;2022-12-20T15:25:13;102435.40;;;6.10
68939;BMP180;59064;45.294;11.816;2022-12-20T15:27:41;102435.80;;;6.08
68939;BMP180;59064;45.294;11.816;2022-12-20T15:30:11;102435.60;;;6.06
68939;BMP180;59064;45.294;11.816;2022-12-20T15:32:41;102427.80;;;6.00
68939;BMP180;59064;45.294;11.816;2022-12-20T15:35:15;102423.80;;;6.00
68939;BMP180;59064;45.294;11.816;2022-12-20T15:37:41;102430.80;;;5.96
68939;BMP180;59064;45.294;11.816;2022-12-20T15:40:12;102420.20;;;5.90
68939;BMP180;59064;45.294;11.816;2022-12-20T15:42:40;102426.00;;;5.90
68939;BMP180;59064;45.294;11.816;2022-12-20T15:45:14;102428.40;;;5.90
68939;BMP180;59064;45.294;11.816;2022-12-20T15:47:40;102431.00;;;5.90
68939;BMP180;59064;45.294;11.816;2022-12-20T15:50:08;102428.00;;;5.90
68939;BMP180;59064;45.294;11.816;2022-12-20T15:52:34;102429.40;;;5.96
68939;BMP180;59064;45.294;11.816;2022-12-20T15:55:00;102431.80;;;5.96
68939;BMP180;59064;45.294;11.816;2022-12-20T15:57:25;102429.40;;;5.92
68939;BMP180;59064;45.294;11.816;2022-12-20T15:59:53;102421.60;;;5.92
68939;BMP180;59064;45.294;11.816;2022-12-20T16:04:46;102417.60;;;5.90
68939;BMP180;59064;45.294;11.816;2022-12-20T16:07:12;102426.60;;;5.86
68939;BMP180;59064;45.294;11.816;2022-12-20T16:09:38;102418.60;;;5.88
68939;BMP180;59064;45.294;11.816;2022-12-20T16:12:12;102424.40;;;5.90
68939;BMP180;59064;45.294;11.816;2022-12-20T16:14:38;102415.80;;;5.90
68939;BMP180;59064;45.294;11.816;2022-12-20T16:17:04;102421.00;;;5.82
68939;BMP180;59064;45.294;11.816;2022-12-20T16:19:30;102420.40;;;5.80
68939;BMP180;59064;45.294;11.816;2022-12-20T16:21:56;102413.00;;;5.80
68939;BMP180;59064;45.294;11.816;2022-12-20T16:24:21;102413.60;;;5.80
68939;BMP180;59064;45.294;11.816;2022-12-20T16:26:47;102412.60;;;5.80
68939;BMP180;59064;45.294;11.816;2022-12-20T16:29:13;102415.80;;;5.80